Peachland, North Carolina
Current Conditions -  °F | °C
As of 8:55 AM on Monday 24 Nov 2014 (Local Time) from KAFP Reporting Station
Overcast Overcast  
Wind Chill: 65°   Ceiling: 3100
Heat Index: 65°   Visibility: 10mi
Dew Point: 59°   Wind: 8mph
Humidity: 80%   Direction: 190°S
Pressure: 29.83"   Gusts: NA
Location:  34.99°N, 80.26°W
Report Text: KAFP 241355Z AUTO 19007KT 10SM SCT024 BKN031 OVC037 19/15 A2983 RMK AO2 T01860150
Loading
Personal Weather Stations






























Interactive Weather Map New forecast layout! Learn more

10-Day Weather Forecast

Advertisements
Track Severe Weather on mobile